createdAt,value
2019-01-15T00:00:28.127Z,1015.45
2019-01-15T00:01:27.321Z,1015.43
2019-01-15T00:02:27.308Z,1015.40
2019-01-15T00:03:27.314Z,1015.42
2019-01-15T00:04:27.293Z,1015.41
2019-01-15T00:05:27.275Z,1015.33
2019-01-15T00:06:27.264Z,1015.41
2019-01-15T00:07:27.256Z,1015.32
2019-01-15T00:08:27.265Z,1015.37
2019-01-15T00:09:27.250Z,1015.40
2019-01-15T00:10:28.133Z,1015.35
2019-01-15T00:11:28.127Z,1015.46
2019-01-15T00:12:27.199Z,1015.44
2019-01-15T00:13:27.205Z,1015.37
2019-01-15T00:14:27.178Z,1015.45
2019-01-15T00:15:27.168Z,1015.40
2019-01-15T00:16:27.153Z,1015.36
2019-01-15T00:17:27.142Z,1015.41
2019-01-15T00:18:27.168Z,1015.43
2019-01-15T00:19:27.120Z,1015.38
2019-01-15T00:20:27.117Z,1015.39
2019-01-15T00:21:27.634Z,1015.42
2019-01-15T00:22:27.090Z,1015.37
2019-01-15T00:23:27.096Z,1015.49
2019-01-15T00:24:27.067Z,1015.48
2019-01-15T00:25:27.063Z,1015.50
2019-01-15T00:26:27.062Z,1015.51
2019-01-15T00:27:27.034Z,1015.51
2019-01-15T00:28:27.041Z,1015.53
2019-01-15T00:29:27.007Z,1015.51
2019-01-15T00:30:26.999Z,1015.54
2019-01-15T00:31:27.627Z,1015.55
2019-01-15T00:32:26.979Z,1015.59
2019-01-15T00:33:26.996Z,1015.58
2019-01-15T00:34:26.959Z,1015.59
2019-01-15T00:35:26.946Z,1015.62
2019-01-15T00:36:26.933Z,1015.62
2019-01-15T00:37:26.935Z,1015.58
2019-01-15T00:38:26.940Z,1015.52
2019-01-15T00:39:26.908Z,1015.55
2019-01-15T00:40:26.891Z,1015.50
2019-01-15T00:41:26.881Z,1015.49
2019-01-15T00:42:26.869Z,1015.41
2019-01-15T00:43:27.200Z,1015.42
2019-01-15T00:44:26.868Z,1015.42
2019-01-15T00:45:26.866Z,1015.37
2019-01-15T00:46:26.825Z,1015.36
2019-01-15T00:47:26.818Z,1015.35
2019-01-15T00:48:27.164Z,1015.34
2019-01-15T00:49:26.796Z,1015.21
2019-01-15T00:50:26.780Z,1015.29
2019-01-15T00:51:26.770Z,1015.32
2019-01-15T00:52:26.759Z,1015.35
2019-01-15T00:53:26.763Z,1015.32
2019-01-15T00:54:26.759Z,1015.38
2019-01-15T00:55:26.737Z,1015.38
2019-01-15T00:56:26.718Z,1015.47
2019-01-15T00:57:26.702Z,1015.48
2019-01-15T00:58:26.712Z,1015.51
2019-01-15T00:59:26.685Z,1015.44
2019-01-15T01:00:26.672Z,1015.44
2019-01-15T01:01:27.628Z,1015.42
2019-01-15T01:02:26.648Z,1015.41
2019-01-15T01:03:26.683Z,1015.40
2019-01-15T01:04:26.630Z,1015.39
2019-01-15T01:05:27.129Z,1015.29
2019-01-15T01:06:27.143Z,1015.34
2019-01-15T01:07:27.135Z,1015.28
2019-01-15T01:08:26.634Z,1015.28
2019-01-15T01:09:26.570Z,1015.29
2019-01-15T01:10:27.142Z,1015.27
2019-01-15T01:11:26.548Z,1015.25
2019-01-15T01:12:27.131Z,1015.34
2019-01-15T01:13:26.563Z,1015.39
2019-01-15T01:14:26.516Z,1015.41
2019-01-15T01:15:27.130Z,1015.41
2019-01-15T01:16:26.495Z,1015.33
2019-01-15T01:17:26.483Z,1015.41
2019-01-15T01:18:26.640Z,1015.41
2019-01-15T01:19:26.498Z,1015.40
2019-01-15T01:20:26.450Z,1015.39
2019-01-15T01:21:26.440Z,1015.41
2019-01-15T01:22:27.141Z,1015.40
2019-01-15T01:23:26.440Z,1015.45
2019-01-15T01:24:26.426Z,1015.43
2019-01-15T01:25:26.397Z,1015.44
2019-01-15T01:26:26.385Z,1015.43
2019-01-15T01:27:26.376Z,1015.50
2019-01-15T01:28:26.653Z,1015.42
2019-01-15T01:29:26.368Z,1015.41
2019-01-15T01:30:26.346Z,1015.42
2019-01-15T01:31:26.328Z,1015.36
2019-01-15T01:32:26.367Z,1015.36
2019-01-15T01:33:26.328Z,1015.37
2019-01-15T01:34:27.129Z,1015.36
2019-01-15T01:35:26.302Z,1015.30
2019-01-15T01:36:26.274Z,1015.33
2019-01-15T01:37:26.292Z,1015.33
2019-01-15T01:38:26.282Z,1015.40
2019-01-15T01:39:26.241Z,1015.42
2019-01-15T01:40:26.237Z,1015.45
2019-01-15T01:41:27.138Z,1015.48
2019-01-15T01:42:29.494Z,1015.41
2019-01-15T01:43:26.203Z,1015.53
2019-01-15T01:44:26.202Z,1015.55
2019-01-15T01:45:27.131Z,1015.51
2019-01-15T01:46:26.171Z,1015.50
2019-01-15T01:47:26.173Z,1015.57
2019-01-15T01:48:26.156Z,1015.45
2019-01-15T01:49:26.165Z,1015.49
2019-01-15T01:50:27.594Z,1015.48
2019-01-15T01:51:26.114Z,1015.51
2019-01-15T01:52:26.116Z,1015.46
2019-01-15T01:53:26.100Z,1015.47
2019-01-15T01:54:26.126Z,1015.46
2019-01-15T01:55:26.070Z,1015.40
2019-01-15T01:56:26.059Z,1015.43
2019-01-15T01:57:26.053Z,1015.49
2019-01-15T01:58:26.635Z,1015.49
2019-01-15T01:59:26.059Z,1015.55
2019-01-15T02:00:26.022Z,1015.55
2019-01-15T02:01:26.009Z,1015.57
2019-01-15T02:02:26.630Z,1015.59
2019-01-15T02:03:25.982Z,1015.61
2019-01-15T02:04:26.156Z,1015.59
2019-01-15T02:05:25.966Z,1015.67
2019-01-15T02:06:25.954Z,1015.65
2019-01-15T02:07:25.941Z,1015.72
2019-01-15T02:08:26.643Z,1015.58
2019-01-15T02:09:25.935Z,1015.64
2019-01-15T02:10:25.914Z,1015.62
2019-01-15T02:11:25.900Z,1015.67
2019-01-15T02:12:25.889Z,1015.61
2019-01-15T02:13:25.880Z,1015.64
2019-01-15T02:14:25.882Z,1015.57
2019-01-15T02:15:26.642Z,1015.63
2019-01-15T02:16:25.853Z,1015.57
2019-01-15T02:17:25.841Z,1015.69
2019-01-15T02:18:25.825Z,1015.64
2019-01-15T02:19:25.830Z,1015.64
2019-01-15T02:20:25.834Z,1015.61
2019-01-15T02:21:25.801Z,1015.71
2019-01-15T02:22:25.795Z,1015.75
2019-01-15T02:23:25.771Z,1015.73
2019-01-15T02:24:25.781Z,1015.66
2019-01-15T02:25:25.753Z,1015.74
2019-01-15T02:26:25.739Z,1015.70
2019-01-15T02:27:26.659Z,1015.65
2019-01-15T02:28:25.719Z,1015.69
2019-01-15T02:29:26.183Z,1015.67
2019-01-15T02:30:26.638Z,1015.59
2019-01-15T02:31:25.679Z,1015.56
2019-01-15T02:32:25.674Z,1015.59
2019-01-15T02:33:26.638Z,1015.55
2019-01-15T02:34:25.676Z,1015.45
2019-01-15T02:35:25.647Z,1015.35
2019-01-15T02:36:25.627Z,1015.29
2019-01-15T02:37:25.623Z,1015.23
2019-01-15T02:38:26.155Z,1015.15
2019-01-15T02:39:25.663Z,1015.18
2019-01-15T02:40:25.621Z,1015.26
2019-01-15T02:41:25.578Z,1015.15
2019-01-15T02:42:26.215Z,1015.22
2019-01-15T02:43:25.558Z,1015.19
2019-01-15T02:44:25.557Z,1015.19
2019-01-15T02:45:25.544Z,1015.22
2019-01-15T02:46:25.518Z,1015.20
2019-01-15T02:47:25.511Z,1015.23
2019-01-15T02:48:25.496Z,1015.22
2019-01-15T02:49:25.665Z,1015.17
2019-01-15T02:50:25.476Z,1015.18
2019-01-15T02:51:26.140Z,1015.29
2019-01-15T02:52:25.457Z,1015.30
2019-01-15T02:53:25.436Z,1015.36
2019-01-15T02:54:25.658Z,1015.31
2019-01-15T02:55:25.427Z,1015.32
2019-01-15T02:56:25.422Z,1015.28
2019-01-15T02:57:25.397Z,1015.31
2019-01-15T02:58:25.384Z,1015.30
2019-01-15T02:59:25.392Z,1015.29
2019-01-15T03:00:25.384Z,1015.29
2019-01-15T03:01:25.367Z,1015.23
2019-01-15T03:02:25.339Z,1015.25
2019-01-15T03:03:25.331Z,1015.27
2019-01-15T03:04:25.340Z,1015.23
2019-01-15T03:05:25.307Z,1015.23
2019-01-15T03:06:25.295Z,1015.25
2019-01-15T03:07:25.286Z,1015.27
2019-01-15T03:08:25.282Z,1015.20
2019-01-15T03:09:25.285Z,1015.29
2019-01-15T03:10:25.256Z,1015.19
2019-01-15T03:11:26.147Z,1015.25
2019-01-15T03:12:26.166Z,1015.23
2019-01-15T03:13:25.224Z,1015.28
2019-01-15T03:14:25.253Z,1015.26
2019-01-15T03:15:25.204Z,1015.26
2019-01-15T03:16:25.192Z,1015.24
2019-01-15T03:17:25.184Z,1015.20
2019-01-15T03:18:25.164Z,1015.12
2019-01-15T03:19:25.235Z,1015.15
2019-01-15T03:20:25.159Z,1015.16
2019-01-15T03:21:25.132Z,1015.18
2019-01-15T03:22:25.138Z,1015.16
2019-01-15T03:23:25.639Z,1015.16
2019-01-15T03:24:25.117Z,1015.16
2019-01-15T03:25:25.089Z,1015.12
2019-01-15T03:26:25.075Z,1015.13
2019-01-15T03:27:25.078Z,1015.10
2019-01-15T03:28:25.637Z,1015.09
2019-01-15T03:29:25.157Z,1015.05
2019-01-15T03:30:25.642Z,1015.06
2019-01-15T03:31:25.040Z,1015.09
2019-01-15T03:32:25.021Z,1015.10
2019-01-15T03:33:25.014Z,1015.14
2019-01-15T03:34:25.151Z,1015.15
2019-01-15T03:35:25.641Z,1015.16
2019-01-15T03:36:24.968Z,1015.13
2019-01-15T03:37:25.639Z,1015.15
2019-01-15T03:38:24.951Z,1015.15
2019-01-15T03:39:25.157Z,1015.14
2019-01-15T03:40:24.926Z,1015.07
2019-01-15T03:41:24.944Z,1015.12
2019-01-15T03:42:24.901Z,1015.16
2019-01-15T03:43:24.897Z,1015.15
2019-01-15T03:44:24.876Z,1015.11
2019-01-15T03:45:24.886Z,1015.11
2019-01-15T03:46:25.655Z,1015.11
2019-01-15T03:47:24.861Z,1015.05
2019-01-15T03:48:24.851Z,1015.14
2019-01-15T03:49:24.829Z,1015.10
2019-01-15T03:50:25.162Z,1015.15
2019-01-15T03:51:24.797Z,1015.00
2019-01-15T03:52:24.791Z,1015.04
2019-01-15T03:53:24.792Z,1015.06
2019-01-15T03:54:24.779Z,1015.01
2019-01-15T03:55:24.773Z,1015.02
2019-01-15T03:56:25.654Z,1014.99
2019-01-15T03:57:25.646Z,1014.98
2019-01-15T03:58:24.731Z,1014.99
2019-01-15T03:59:24.709Z,1014.96
2019-01-15T04:00:24.715Z,1014.99
2019-01-15T04:01:24.689Z,1014.92
2019-01-15T04:02:24.676Z,1014.92
2019-01-15T04:03:24.676Z,1014.89
2019-01-15T04:04:24.682Z,1014.82
2019-01-15T04:05:25.179Z,1014.82
2019-01-15T04:06:24.632Z,1014.85
2019-01-15T04:07:24.622Z,1014.78
2019-01-15T04:08:24.618Z,1014.82
2019-01-15T04:09:24.607Z,1014.75
2019-01-15T04:10:24.607Z,1014.78
2019-01-15T04:11:24.645Z,1014.81
2019-01-15T04:12:24.567Z,1014.81
2019-01-15T04:13:24.568Z,1014.82
2019-01-15T04:14:25.149Z,1014.74
2019-01-15T04:15:24.558Z,1014.79
2019-01-15T04:16:24.540Z,1014.77
2019-01-15T04:17:24.514Z,1014.77
2019-01-15T04:18:24.503Z,1014.79
2019-01-15T04:19:24.487Z,1014.81
2019-01-15T04:20:24.500Z,1014.84
2019-01-15T04:21:24.471Z,1014.81
2019-01-15T04:22:24.460Z,1014.83
2019-01-15T04:23:24.466Z,1014.84
2019-01-15T04:24:24.446Z,1014.85
2019-01-15T04:25:24.449Z,1014.85
2019-01-15T04:26:24.417Z,1014.85
2019-01-15T04:27:24.422Z,1014.79
2019-01-15T04:28:24.396Z,1014.77
2019-01-15T04:29:25.143Z,1014.81
2019-01-15T04:30:24.383Z,1014.76
2019-01-15T04:31:24.356Z,1014.72
2019-01-15T04:32:24.347Z,1014.62
2019-01-15T04:33:24.343Z,1014.68
2019-01-15T04:34:24.329Z,1014.75
2019-01-15T04:35:24.331Z,1014.73
2019-01-15T04:36:24.303Z,1014.73
2019-01-15T04:37:24.292Z,1014.69
2019-01-15T04:38:25.145Z,1014.65
2019-01-15T04:39:24.274Z,1014.68
2019-01-15T04:40:24.288Z,1014.66
2019-01-15T04:41:24.250Z,1014.60
2019-01-15T04:42:24.257Z,1014.64
2019-01-15T04:43:24.231Z,1014.70
2019-01-15T04:44:25.142Z,1014.54
2019-01-15T04:45:24.232Z,1014.67
2019-01-15T04:46:24.199Z,1014.61
2019-01-15T04:47:24.183Z,1014.50
2019-01-15T04:48:25.144Z,1014.54
2019-01-15T04:49:25.172Z,1014.56
2019-01-15T04:50:24.655Z,1014.54
2019-01-15T04:51:24.139Z,1014.48
2019-01-15T04:52:24.127Z,1014.40
2019-01-15T04:53:24.123Z,1014.41
2019-01-15T04:54:24.647Z,1014.39
2019-01-15T04:55:24.130Z,1014.40
2019-01-15T04:56:24.102Z,1014.38
2019-01-15T04:57:24.070Z,1014.36
2019-01-15T04:58:24.642Z,1014.36
2019-01-15T04:59:24.064Z,1014.34
2019-01-15T05:00:24.054Z,1014.33
2019-01-15T05:01:24.643Z,1014.29
2019-01-15T05:02:24.016Z,1014.32
2019-01-15T05:03:24.006Z,1014.31
2019-01-15T05:04:24.646Z,1014.30
2019-01-15T05:05:24.164Z,1014.25
2019-01-15T05:06:23.973Z,1014.25
2019-01-15T05:07:24.644Z,1014.29
2019-01-15T05:08:23.970Z,1014.25
2019-01-15T05:09:23.945Z,1014.29
2019-01-15T05:10:24.157Z,1014.29
2019-01-15T05:11:23.917Z,1014.29
2019-01-15T05:12:23.905Z,1014.34
2019-01-15T05:13:27.473Z,1014.33
2019-01-15T05:14:23.886Z,1014.30
2019-01-15T05:15:24.165Z,1014.28
2019-01-15T05:16:23.870Z,1014.26
2019-01-15T05:17:23.854Z,1014.22
2019-01-15T05:18:23.839Z,1014.22
2019-01-15T05:19:23.828Z,1014.21
2019-01-15T05:20:24.165Z,1014.24
2019-01-15T05:21:23.807Z,1014.26
2019-01-15T05:22:23.797Z,1014.23
2019-01-15T05:23:23.879Z,1014.18
2019-01-15T05:24:23.774Z,1014.18
2019-01-15T05:25:23.777Z,1014.13
2019-01-15T05:26:24.644Z,1014.24
2019-01-15T05:27:23.744Z,1014.30
2019-01-15T05:28:23.728Z,1014.25
2019-01-15T05:29:23.718Z,1014.26
2019-01-15T05:30:23.731Z,1014.37
2019-01-15T05:31:23.697Z,1014.36
2019-01-15T05:32:23.687Z,1014.40
2019-01-15T05:33:24.642Z,1014.45
2019-01-15T05:34:23.665Z,1014.43
2019-01-15T05:35:24.172Z,1014.44
2019-01-15T05:36:23.645Z,1014.42
2019-01-15T05:37:23.635Z,1014.34
2019-01-15T05:38:23.619Z,1014.39
2019-01-15T05:39:23.611Z,1014.30
2019-01-15T05:40:23.664Z,1014.31
2019-01-15T05:41:23.596Z,1014.26
2019-01-15T05:42:23.588Z,1014.26
2019-01-15T05:43:24.145Z,1014.26
2019-01-15T05:44:23.559Z,1014.33
2019-01-15T05:45:23.571Z,1014.31
2019-01-15T05:46:23.534Z,1014.37
2019-01-15T05:47:23.524Z,1014.26
2019-01-15T05:48:23.539Z,1014.22
2019-01-15T05:49:23.508Z,1014.20
2019-01-15T05:50:23.498Z,1014.21
2019-01-15T05:51:23.507Z,1014.20
2019-01-15T05:52:23.475Z,1014.17
2019-01-15T05:53:23.467Z,1014.11
2019-01-15T05:54:23.455Z,1014.09
2019-01-15T05:55:23.449Z,1014.08
2019-01-15T05:56:23.658Z,1014.09
2019-01-15T05:57:24.145Z,1013.97
2019-01-15T05:58:23.411Z,1014.03
2019-01-15T05:59:23.397Z,1013.99
2019-01-15T06:00:23.405Z,1014.05
2019-01-15T06:01:23.388Z,1014.03
2019-01-15T06:02:23.359Z,1014.05
2019-01-15T06:03:23.353Z,1014.10
2019-01-15T06:04:23.342Z,1014.06
2019-01-15T06:05:23.335Z,1014.11
2019-01-15T06:06:23.335Z,1014.06
2019-01-15T06:07:23.312Z,1013.99
2019-01-15T06:08:23.298Z,1014.09
2019-01-15T06:09:23.284Z,1014.05
2019-01-15T06:10:23.306Z,1014.07
2019-01-15T06:11:23.280Z,1013.98
2019-01-15T06:12:23.257Z,1013.99
2019-01-15T06:13:24.145Z,1013.98
2019-01-15T06:14:23.233Z,1013.95
2019-01-15T06:15:23.226Z,1013.89
2019-01-15T06:16:23.225Z,1013.96
2019-01-15T06:17:23.201Z,1013.88
2019-01-15T06:18:23.190Z,1013.89
2019-01-15T06:19:24.210Z,1013.84
2019-01-15T06:20:23.170Z,1013.88
2019-01-15T06:21:23.190Z,1013.84
2019-01-15T06:22:23.171Z,1013.83
2019-01-15T06:23:23.146Z,1013.87
2019-01-15T06:24:23.128Z,1013.78
2019-01-15T06:25:23.117Z,1013.81
2019-01-15T06:26:23.135Z,1013.82
2019-01-15T06:27:23.664Z,1013.78
2019-01-15T06:28:23.086Z,1013.77
2019-01-15T06:29:23.679Z,1013.82
2019-01-15T06:30:23.061Z,1013.73
2019-01-15T06:31:23.160Z,1013.66
2019-01-15T06:32:23.047Z,1013.73
2019-01-15T06:33:23.031Z,1013.75
2019-01-15T06:34:23.022Z,1013.81
2019-01-15T06:35:23.007Z,1013.80
2019-01-15T06:36:23.014Z,1013.69
2019-01-15T06:37:22.984Z,1013.75
2019-01-15T06:38:22.975Z,1013.72
2019-01-15T06:39:22.964Z,1013.71
2019-01-15T06:40:22.951Z,1013.74
2019-01-15T06:41:22.973Z,1013.77
2019-01-15T06:42:23.657Z,1013.77
2019-01-15T06:43:22.919Z,1013.78
2019-01-15T06:44:22.914Z,1013.78
2019-01-15T06:45:22.899Z,1013.81
2019-01-15T06:46:22.940Z,1013.79
2019-01-15T06:47:22.885Z,1013.86
2019-01-15T06:48:22.865Z,1013.84
2019-01-15T06:49:22.851Z,1013.87
2019-01-15T06:50:22.846Z,1013.80
2019-01-15T06:51:22.846Z,1013.68
2019-01-15T06:52:22.832Z,1013.81
2019-01-15T06:53:22.808Z,1013.72
2019-01-15T06:54:22.798Z,1013.76
2019-01-15T06:55:23.654Z,1013.78
2019-01-15T06:56:22.792Z,1013.81
2019-01-15T06:57:22.773Z,1013.88
2019-01-15T06:58:22.754Z,1013.85
2019-01-15T06:59:23.650Z,1013.86
2019-01-15T07:00:22.733Z,1013.90
2019-01-15T07:01:22.734Z,1013.95
2019-01-15T07:02:22.718Z,1014.00
2019-01-15T07:03:22.700Z,1013.93
2019-01-15T07:04:22.691Z,1013.92
2019-01-15T07:05:22.682Z,1013.92
2019-01-15T07:06:23.160Z,1013.97
2019-01-15T07:07:22.666Z,1013.95
2019-01-15T07:08:22.645Z,1013.94
2019-01-15T07:09:22.639Z,1013.87
2019-01-15T07:10:22.632Z,1013.95
2019-01-15T07:11:22.631Z,1013.93
2019-01-15T07:12:22.616Z,1013.95
2019-01-15T07:13:22.598Z,1013.88
2019-01-15T07:14:22.579Z,1013.94
2019-01-15T07:15:22.570Z,1013.95
2019-01-15T07:16:22.576Z,1014.00
2019-01-15T07:17:22.549Z,1013.97
2019-01-15T07:18:23.162Z,1013.97
2019-01-15T07:19:23.160Z,1013.99
2019-01-15T07:20:22.515Z,1013.92
2019-01-15T07:21:22.663Z,1013.99
2019-01-15T07:22:23.168Z,1013.93
2019-01-15T07:23:23.156Z,1013.98
2019-01-15T07:24:22.471Z,1013.97
2019-01-15T07:25:22.471Z,1014.00
2019-01-15T07:26:22.659Z,1013.92
2019-01-15T07:27:23.152Z,1014.03
2019-01-15T07:28:22.435Z,1014.05
2019-01-15T07:29:22.416Z,1013.99
2019-01-15T07:30:22.402Z,1014.08
2019-01-15T07:31:22.414Z,1014.01
2019-01-15T07:32:22.387Z,1013.96
2019-01-15T07:33:23.155Z,1013.88
2019-01-15T07:34:22.366Z,1013.89
2019-01-15T07:35:22.353Z,1013.85
2019-01-15T07:36:22.675Z,1013.89
2019-01-15T07:37:22.330Z,1013.92
2019-01-15T07:38:23.175Z,1013.89
2019-01-15T07:39:22.308Z,1013.90
2019-01-15T07:40:22.300Z,1013.87
2019-01-15T07:41:22.302Z,1013.88
2019-01-15T07:42:22.277Z,1013.81
2019-01-15T07:43:22.291Z,1013.83
2019-01-15T07:44:22.261Z,1013.84
2019-01-15T07:45:22.241Z,1013.81
2019-01-15T07:46:22.251Z,1013.81
2019-01-15T07:47:22.222Z,1013.66
2019-01-15T07:48:22.218Z,1013.72
2019-01-15T07:49:22.198Z,1013.73
2019-01-15T07:50:22.185Z,1013.77
2019-01-15T07:51:22.210Z,1013.73
2019-01-15T07:52:23.168Z,1013.70
2019-01-15T07:53:22.157Z,1013.70
2019-01-15T07:54:22.169Z,1013.78
2019-01-15T07:55:22.143Z,1013.67
2019-01-15T07:56:22.132Z,1013.64
2019-01-15T07:57:22.121Z,1013.62
2019-01-15T07:58:22.126Z,1013.65
2019-01-15T07:59:22.098Z,1013.63
2019-01-15T08:00:22.081Z,1013.52
2019-01-15T08:01:22.070Z,1013.63
2019-01-15T08:02:22.071Z,1013.55
2019-01-15T08:03:22.043Z,1013.59
2019-01-15T08:04:22.045Z,1013.60
2019-01-15T08:05:22.027Z,1013.61
2019-01-15T08:06:22.654Z,1013.59
2019-01-15T08:07:22.020Z,1013.66
2019-01-15T08:08:21.991Z,1013.72
2019-01-15T08:09:21.988Z,1013.60
2019-01-15T08:10:21.978Z,1013.61
2019-01-15T08:11:21.967Z,1013.66
2019-01-15T08:12:21.982Z,1013.63
2019-01-15T08:13:21.942Z,1013.66
2019-01-15T08:14:21.937Z,1013.67
2019-01-15T08:15:22.657Z,1013.66
2019-01-15T08:16:21.912Z,1013.73
2019-01-15T08:17:21.917Z,1013.68
2019-01-15T08:18:22.653Z,1013.66
2019-01-15T08:19:21.890Z,1013.66
2019-01-15T08:20:21.872Z,1013.69
2019-01-15T08:21:21.848Z,1013.70
2019-01-15T08:22:21.865Z,1013.69
2019-01-15T08:23:21.850Z,1013.60
2019-01-15T08:24:21.840Z,1013.59
2019-01-15T08:25:21.805Z,1013.69
2019-01-15T08:26:22.653Z,1013.69
2019-01-15T08:27:21.800Z,1013.79
2019-01-15T08:28:22.663Z,1013.74
2019-01-15T08:29:21.772Z,1013.72
2019-01-15T08:30:22.652Z,1013.71
2019-01-15T08:31:23.511Z,1013.74
2019-01-15T08:32:22.170Z,1013.70
2019-01-15T08:33:21.719Z,1013.70
2019-01-15T08:34:21.719Z,1013.69
2019-01-15T08:35:21.697Z,1013.68
2019-01-15T08:36:22.662Z,1013.63
2019-01-15T08:37:22.227Z,1013.69
2019-01-15T08:38:21.658Z,1013.67
2019-01-15T08:39:21.658Z,1013.72
2019-01-15T08:40:21.642Z,1013.70
2019-01-15T08:41:21.630Z,1013.73
2019-01-15T08:42:21.685Z,1013.75
2019-01-15T08:43:21.627Z,1013.80
2019-01-15T08:44:22.167Z,1013.75
2019-01-15T08:45:22.154Z,1013.81
2019-01-15T08:46:21.574Z,1013.85
2019-01-15T08:47:21.601Z,1013.83
2019-01-15T08:48:22.202Z,1013.73
2019-01-15T08:49:22.163Z,1013.81
2019-01-15T08:50:21.552Z,1013.86
2019-01-15T08:51:21.525Z,1013.86
2019-01-15T08:52:21.525Z,1013.85
2019-01-15T08:53:21.503Z,1013.87
2019-01-15T08:54:21.503Z,1013.85
2019-01-15T08:55:21.507Z,1013.89
2019-01-15T08:56:21.467Z,1013.92
2019-01-15T08:57:21.491Z,1013.93
2019-01-15T08:58:21.463Z,1013.90
2019-01-15T08:59:22.163Z,1013.90
2019-01-15T09:00:21.426Z,1013.86
2019-01-15T09:01:21.414Z,1013.82
2019-01-15T09:02:21.423Z,1013.86
2019-01-15T09:03:21.414Z,1013.87
2019-01-15T09:04:21.381Z,1013.83
2019-01-15T09:05:21.370Z,1013.87
2019-01-15T09:06:21.359Z,1013.83
2019-01-15T09:07:21.940Z,1013.80
2019-01-15T09:08:22.162Z,1013.81
2019-01-15T09:09:21.326Z,1013.86
2019-01-15T09:10:21.319Z,1013.84
2019-01-15T09:11:21.308Z,1013.77
2019-01-15T09:12:21.847Z,1013.82
2019-01-15T09:13:21.302Z,1013.81
2019-01-15T09:14:26.705Z,1013.81
2019-01-15T09:15:21.274Z,1013.81
2019-01-15T09:16:21.252Z,1013.72
2019-01-15T09:17:21.254Z,1013.82
2019-01-15T09:18:21.235Z,1013.81
2019-01-15T09:19:21.221Z,1013.77
2019-01-15T09:20:22.164Z,1013.75
2019-01-15T09:21:22.165Z,1013.76
2019-01-15T09:22:21.206Z,1013.81
2019-01-15T09:23:21.176Z,1013.79
2019-01-15T09:24:22.160Z,1013.81
2019-01-15T09:25:21.161Z,1013.84
2019-01-15T09:26:21.153Z,1013.81
2019-01-15T09:27:21.153Z,1013.79
2019-01-15T09:28:21.122Z,1013.76
2019-01-15T09:29:21.111Z,1013.78
2019-01-15T09:30:21.142Z,1013.77
2019-01-15T09:31:22.042Z,1013.79
2019-01-15T09:32:21.174Z,1013.84
2019-01-15T09:33:21.670Z,1013.81
2019-01-15T09:34:21.137Z,1013.77
2019-01-15T09:35:21.664Z,1013.81
2019-01-15T09:36:21.668Z,1013.81
2019-01-15T09:37:21.415Z,1013.82
2019-01-15T09:38:21.801Z,1013.79
2019-01-15T09:39:21.008Z,1013.81
2019-01-15T09:40:21.012Z,1013.74
2019-01-15T09:41:21.711Z,1013.83
2019-01-15T09:42:21.680Z,1013.73
2019-01-15T09:43:20.989Z,1013.73
2019-01-15T09:44:21.663Z,1013.72
2019-01-15T09:45:20.938Z,1013.67
2019-01-15T09:46:21.692Z,1013.76
2019-01-15T09:47:20.934Z,1013.80
2019-01-15T09:48:20.979Z,1013.78
2019-01-15T09:49:20.923Z,1013.80
2019-01-15T09:50:20.891Z,1013.80
2019-01-15T09:51:21.668Z,1013.82
2019-01-15T09:52:20.875Z,1013.78
2019-01-15T09:53:21.793Z,1013.69
2019-01-15T09:54:21.705Z,1013.72
2019-01-15T09:55:21.701Z,1013.70
2019-01-15T09:56:20.817Z,1013.68
2019-01-15T09:57:21.186Z,1013.71
2019-01-15T09:58:20.799Z,1013.72
2019-01-15T09:59:21.666Z,1013.67
2019-01-15T10:00:21.721Z,1013.63
2019-01-15T10:01:21.723Z,1013.68
2019-01-15T10:02:20.817Z,1013.63
2019-01-15T10:03:21.666Z,1013.70
2019-01-15T10:04:23.673Z,1013.63
2019-01-15T10:05:20.743Z,1013.60
2019-01-15T10:06:21.658Z,1013.67
2019-01-15T10:07:21.706Z,1013.66
2019-01-15T10:08:21.693Z,1013.65
2019-01-15T10:09:21.684Z,1013.56
2019-01-15T10:10:21.686Z,1013.64
2019-01-15T10:11:21.177Z,1013.51
2019-01-15T10:12:20.653Z,1013.65
2019-01-15T10:13:21.246Z,1013.58
2019-01-15T10:14:21.194Z,1013.56
2019-01-15T10:15:21.403Z,1013.61
2019-01-15T10:16:21.232Z,1013.59
2019-01-15T10:17:21.156Z,1013.66
2019-01-15T10:18:20.712Z,1013.51
2019-01-15T10:19:20.656Z,1013.53
2019-01-15T10:20:20.555Z,1013.52
2019-01-15T10:21:21.206Z,1013.47
2019-01-15T10:22:20.625Z,1013.48
2019-01-15T10:23:21.192Z,1013.39
2019-01-15T10:24:21.160Z,1013.47
2019-01-15T10:25:21.182Z,1013.45
2019-01-15T10:26:20.486Z,1013.41
2019-01-15T10:27:20.612Z,1013.40
2019-01-15T10:28:20.496Z,1013.37
2019-01-15T10:29:20.457Z,1013.42
2019-01-15T10:30:21.168Z,1013.39
2019-01-15T10:31:21.166Z,1013.37
2019-01-15T10:32:20.430Z,1013.38
2019-01-15T10:33:20.694Z,1013.34
2019-01-15T10:34:21.163Z,1013.43
2019-01-15T10:35:20.395Z,1013.40
2019-01-15T10:36:21.184Z,1013.43
2019-01-15T10:37:20.375Z,1013.36
2019-01-15T10:38:20.680Z,1013.40
2019-01-15T10:39:20.349Z,1013.41
2019-01-15T10:40:20.377Z,1013.39
2019-01-15T10:41:20.323Z,1013.40
2019-01-15T10:42:20.313Z,1013.39
2019-01-15T10:43:20.316Z,1013.36
2019-01-15T10:44:21.239Z,1013.37
2019-01-15T10:45:20.281Z,1013.33
2019-01-15T10:46:21.424Z,1013.34
2019-01-15T10:47:20.262Z,1013.31
2019-01-15T10:48:20.259Z,1013.34
2019-01-15T10:49:21.325Z,1013.30
2019-01-15T10:50:20.228Z,1013.27
2019-01-15T10:51:21.172Z,1013.14
2019-01-15T10:52:20.211Z,1013.29
2019-01-15T10:53:21.188Z,1013.14
2019-01-15T10:54:21.164Z,1013.20
2019-01-15T10:55:21.168Z,1013.20
2019-01-15T10:56:20.666Z,1013.23
2019-01-15T10:57:20.201Z,1013.25
2019-01-15T10:58:20.222Z,1013.20
2019-01-15T10:59:20.126Z,1013.25
2019-01-15T11:00:20.114Z,1013.23
2019-01-15T11:01:20.670Z,1013.26
2019-01-15T11:02:20.664Z,1013.23
2019-01-15T11:03:20.690Z,1013.27
2019-01-15T11:04:20.120Z,1013.24
2019-01-15T11:05:20.667Z,1013.22
2019-01-15T11:06:20.052Z,1013.20
2019-01-15T11:07:20.158Z,1013.23
2019-01-15T11:08:20.172Z,1013.21
2019-01-15T11:09:20.667Z,1013.19
2019-01-15T11:10:20.007Z,1013.16
2019-01-15T11:11:20.791Z,1013.20
2019-01-15T11:12:19.987Z,1013.17
2019-01-15T11:13:20.692Z,1013.15
2019-01-15T11:14:20.685Z,1013.18
2019-01-15T11:15:20.661Z,1013.15
2019-01-15T11:16:20.696Z,1013.19
2019-01-15T11:17:19.931Z,1013.20
2019-01-15T11:18:19.952Z,1013.13
2019-01-15T11:19:20.667Z,1013.15
2019-01-15T11:20:20.675Z,1013.22
2019-01-15T11:21:19.892Z,1013.14
2019-01-15T11:22:20.683Z,1013.13
2019-01-15T11:23:19.895Z,1013.17
2019-01-15T11:24:19.860Z,1013.14
2019-01-15T11:25:20.673Z,1013.14
2019-01-15T11:26:19.870Z,1013.11
2019-01-15T11:27:19.826Z,1013.19
2019-01-15T11:28:19.835Z,1013.12
2019-01-15T11:29:20.844Z,1013.11
2019-01-15T11:30:19.801Z,1013.11
2019-01-15T11:31:20.706Z,1013.15
2019-01-15T11:32:20.666Z,1013.14
2019-01-15T11:33:19.796Z,1013.02
2019-01-15T11:34:20.668Z,1013.10
2019-01-15T11:35:19.801Z,1013.09
2019-01-15T11:36:20.687Z,1013.09
2019-01-15T11:37:21.911Z,1013.07
2019-01-15T11:38:20.187Z,1013.03
2019-01-15T11:39:19.693Z,1013.01
2019-01-15T11:40:20.754Z,1013.08
2019-01-15T11:41:19.672Z,1012.99
2019-01-15T11:42:19.823Z,1013.00
2019-01-15T11:43:19.695Z,1013.01
2019-01-15T11:44:20.211Z,1013.06
2019-01-15T11:45:19.628Z,1013.05
2019-01-15T11:46:20.171Z,1013.03
2019-01-15T11:47:19.608Z,1013.03
2019-01-15T11:48:19.634Z,1013.01
2019-01-15T11:49:20.268Z,1013.00
2019-01-15T11:50:19.651Z,1013.06
2019-01-15T11:51:19.672Z,1013.01
2019-01-15T11:52:19.556Z,1013.04
2019-01-15T11:53:19.690Z,1012.90
2019-01-15T11:54:19.549Z,1012.93
2019-01-15T11:55:21.329Z,1012.90
2019-01-15T11:56:19.540Z,1012.92
2019-01-15T11:57:19.547Z,1012.97
2019-01-15T11:58:19.502Z,1012.91
2019-01-15T11:59:19.479Z,1012.85
2019-01-15T12:00:19.484Z,1012.91
2019-01-15T12:01:20.322Z,1012.86
2019-01-15T12:02:22.293Z,1012.90
2019-01-15T12:03:19.488Z,1012.91
2019-01-15T12:04:20.250Z,1012.90
2019-01-15T12:05:20.167Z,1012.85